createdAt,value
2022-07-25T00:00:12.489Z,5.78
2022-07-25T00:00:34.218Z,6.90
2022-07-25T00:00:56.026Z,6.75
2022-07-25T00:01:17.848Z,7.28
2022-07-25T00:01:42.409Z,7.03
2022-07-25T00:02:04.640Z,7.10
2022-07-25T00:02:30.014Z,5.97
2022-07-25T00:02:52.151Z,8.20
2022-07-25T00:03:13.896Z,8.05
2022-07-25T00:03:40.561Z,6.85
2022-07-25T00:04:05.255Z,6.63
2022-07-25T00:04:27.662Z,7.13
2022-07-25T00:04:52.577Z,7.47
2022-07-25T00:05:14.422Z,8.13
2022-07-25T00:05:38.059Z,6.30
2022-07-25T00:05:59.962Z,7.00
2022-07-25T00:06:21.773Z,8.02
2022-07-25T00:06:43.565Z,6.40
2022-07-25T00:07:05.428Z,7.20
2022-07-25T00:07:28.361Z,7.00
2022-07-25T00:07:50.399Z,6.78
2022-07-25T00:08:12.271Z,7.85
2022-07-25T00:08:35.257Z,7.25
2022-07-25T00:08:57.231Z,6.80
2022-07-25T00:09:19.474Z,7.10
2022-07-25T00:09:42.408Z,6.68
2022-07-25T00:10:04.906Z,6.47
2022-07-25T00:10:26.819Z,6.68
2022-07-25T00:10:48.648Z,7.57
2022-07-25T00:11:10.518Z,6.95
2022-07-25T00:11:32.466Z,7.47
2022-07-25T00:11:54.379Z,7.18
2022-07-25T00:12:16.180Z,8.82
2022-07-25T00:12:38.337Z,7.30
2022-07-25T00:13:00.141Z,7.53
2022-07-25T00:13:21.989Z,6.80
2022-07-25T00:13:43.769Z,6.25
2022-07-25T00:14:06.985Z,7.07
2022-07-25T00:14:28.931Z,7.25
2022-07-25T00:14:50.717Z,7.10
2022-07-25T00:15:13.474Z,7.00
2022-07-25T00:15:35.344Z,7.30
2022-07-25T00:15:57.271Z,7.88
2022-07-25T00:16:19.737Z,7.05
2022-07-25T00:16:41.696Z,6.72
2022-07-25T00:17:03.479Z,7.15
2022-07-25T00:17:25.554Z,7.10
2022-07-25T00:17:47.368Z,6.97
2022-07-25T00:18:09.135Z,6.93
2022-07-25T00:18:30.964Z,7.60
2022-07-25T00:18:52.755Z,7.28
2022-07-25T00:19:14.821Z,7.10
2022-07-25T00:19:36.646Z,6.80
2022-07-25T00:19:58.456Z,6.93
2022-07-25T00:20:20.891Z,6.88
2022-07-25T00:20:43.904Z,6.60
2022-07-25T00:21:05.864Z,7.65
2022-07-25T00:21:27.743Z,7.95
2022-07-25T00:21:49.656Z,7.55
2022-07-25T00:22:11.860Z,6.85
2022-07-25T00:22:33.674Z,7.05
2022-07-25T00:22:55.420Z,7.20
2022-07-25T00:23:17.188Z,7.13
2022-07-25T00:23:41.371Z,7.13
2022-07-25T00:24:05.972Z,7.25
2022-07-25T00:24:28.190Z,7.32
2022-07-25T00:24:49.932Z,6.50
2022-07-25T00:25:11.895Z,6.50
2022-07-25T00:25:33.835Z,6.95
2022-07-25T00:25:55.679Z,7.82
2022-07-25T00:26:17.841Z,7.65
2022-07-25T00:26:40.659Z,6.80
2022-07-25T00:27:02.923Z,6.95
2022-07-25T00:27:25.280Z,8.55
2022-07-25T00:27:47.329Z,8.20
2022-07-25T00:28:09.372Z,7.45
2022-07-25T00:28:31.365Z,9.00
2022-07-25T00:28:53.250Z,6.68
2022-07-25T00:29:16.275Z,6.82
2022-07-25T00:29:38.112Z,6.95
2022-07-25T00:29:59.872Z,6.68
2022-07-25T00:30:21.838Z,6.78
2022-07-25T00:30:43.932Z,10.15
2022-07-25T00:31:05.965Z,7.10
2022-07-25T00:31:28.194Z,6.88
2022-07-25T00:31:50.249Z,7.30
2022-07-25T00:32:12.194Z,7.82
2022-07-25T00:32:34.060Z,7.63
2022-07-25T00:32:55.858Z,7.03
2022-07-25T00:33:17.842Z,6.72
2022-07-25T00:33:40.298Z,7.25
2022-07-25T00:34:03.000Z,7.00
2022-07-25T00:34:25.414Z,9.15
2022-07-25T00:34:47.281Z,7.88
2022-07-25T00:35:09.226Z,7.22
2022-07-25T00:35:31.106Z,7.93
2022-07-25T00:35:52.886Z,8.30
2022-07-25T00:36:14.777Z,6.85
2022-07-25T00:36:36.683Z,6.47
2022-07-25T00:36:59.541Z,7.10
2022-07-25T00:37:21.347Z,7.22
2022-07-25T00:37:43.145Z,7.55
2022-07-25T00:38:04.941Z,8.07
2022-07-25T00:38:26.817Z,8.45
2022-07-25T00:38:48.837Z,7.75
2022-07-25T00:39:11.304Z,7.38
2022-07-25T00:39:33.381Z,7.15
2022-07-25T00:39:58.155Z,7.07
2022-07-25T00:40:20.293Z,7.97
2022-07-25T00:40:42.323Z,7.43
2022-07-25T00:41:04.864Z,7.80
2022-07-25T00:41:26.648Z,8.30
2022-07-25T00:41:48.445Z,7.30
2022-07-25T00:42:10.296Z,7.85
2022-07-25T00:42:33.146Z,7.68
2022-07-25T00:42:55.100Z,7.72
2022-07-25T00:43:16.842Z,8.18
2022-07-25T00:43:42.237Z,7.90
2022-07-25T00:44:04.679Z,7.78
2022-07-25T00:44:29.233Z,6.72
2022-07-25T00:44:52.224Z,6.53
2022-07-25T00:45:14.023Z,8.77
2022-07-25T00:45:36.023Z,7.30
2022-07-25T00:45:58.942Z,6.85
2022-07-25T00:46:22.608Z,7.45
2022-07-25T00:46:45.855Z,7.30
2022-07-25T00:47:07.706Z,7.10
2022-07-25T00:47:29.853Z,8.52
2022-07-25T00:47:51.736Z,8.02
2022-07-25T00:48:13.743Z,7.07
2022-07-25T00:48:36.043Z,7.57
2022-07-25T00:48:57.886Z,7.60
2022-07-25T00:49:20.122Z,7.47
2022-07-25T00:49:42.077Z,6.65
2022-07-25T00:50:05.025Z,7.15
2022-07-25T00:50:27.334Z,7.65
2022-07-25T00:50:49.261Z,7.25
2022-07-25T00:51:12.902Z,7.32
2022-07-25T00:51:34.881Z,6.97
2022-07-25T00:51:56.878Z,7.05
2022-07-25T00:52:18.623Z,7.35
2022-07-25T00:52:40.702Z,7.20
2022-07-25T00:53:02.837Z,7.53
2022-07-25T00:53:25.731Z,8.82
2022-07-25T00:53:47.913Z,9.10
2022-07-25T00:54:10.521Z,7.38
2022-07-25T00:54:33.085Z,7.82
2022-07-25T00:54:56.813Z,8.05
2022-07-25T00:55:20.686Z,7.80
2022-07-25T00:55:42.915Z,7.43
2022-07-25T00:56:06.102Z,8.13
2022-07-25T00:56:27.944Z,6.97
2022-07-25T00:56:51.712Z,6.53
2022-07-25T00:57:13.503Z,7.50
2022-07-25T00:57:35.552Z,7.35
2022-07-25T00:57:57.426Z,8.50
2022-07-25T00:58:19.431Z,8.43
2022-07-25T00:58:41.270Z,6.93
2022-07-25T00:59:03.682Z,7.35
2022-07-25T00:59:25.535Z,8.05
2022-07-25T00:59:47.322Z,7.73
2022-07-25T01:00:13.262Z,7.80
2022-07-25T01:00:35.197Z,6.95
2022-07-25T01:00:57.404Z,7.20
2022-07-25T01:01:21.325Z,7.60
2022-07-25T01:01:45.483Z,8.77
2022-07-25T01:02:07.674Z,7.50
2022-07-25T01:02:29.599Z,7.10
2022-07-25T01:02:52.285Z,7.93
2022-07-25T01:03:14.403Z,8.20
2022-07-25T01:03:36.247Z,8.30
2022-07-25T01:03:58.091Z,8.05
2022-07-25T01:04:20.500Z,7.88
2022-07-25T01:04:42.360Z,8.65
2022-07-25T01:05:06.987Z,8.07
2022-07-25T01:05:32.216Z,7.70
2022-07-25T01:05:54.348Z,8.48
2022-07-25T01:06:16.303Z,7.88
2022-07-25T01:06:39.209Z,7.78
2022-07-25T01:07:01.962Z,7.28
2022-07-25T01:07:24.005Z,10.73
2022-07-25T01:07:47.406Z,7.80
2022-07-25T01:08:10.143Z,7.75
2022-07-25T01:08:32.761Z,8.82
2022-07-25T01:08:55.350Z,7.93
2022-07-25T01:09:17.451Z,7.28
2022-07-25T01:09:39.229Z,7.25
2022-07-25T01:10:01.588Z,7.30
2022-07-25T01:10:23.386Z,7.40
2022-07-25T01:10:46.830Z,8.13
2022-07-25T01:11:09.086Z,8.52
2022-07-25T01:11:31.147Z,9.02
2022-07-25T01:11:52.975Z,8.25
2022-07-25T01:12:15.031Z,7.65
2022-07-25T01:12:50.106Z,7.63
2022-07-25T01:13:11.904Z,8.48
2022-07-25T01:13:34.678Z,7.88
2022-07-25T01:13:56.532Z,7.75
2022-07-25T01:14:18.649Z,9.23
2022-07-25T01:14:40.497Z,7.90
2022-07-25T01:15:02.471Z,8.27
2022-07-25T01:15:24.987Z,7.75
2022-07-25T01:15:46.905Z,7.10
2022-07-25T01:16:08.866Z,7.38
2022-07-25T01:16:30.919Z,8.33
2022-07-25T01:16:52.776Z,10.55
2022-07-25T01:17:14.611Z,9.30
2022-07-25T01:17:36.470Z,9.27
2022-07-25T01:17:58.375Z,7.47
2022-07-25T01:18:21.827Z,7.15
2022-07-25T01:18:43.775Z,7.85
2022-07-25T01:19:05.598Z,8.18
2022-07-25T01:19:27.685Z,8.27
2022-07-25T01:19:51.340Z,7.60
2022-07-25T01:20:20.715Z,7.75
2022-07-25T01:20:42.659Z,8.02
2022-07-25T01:21:04.956Z,7.95
2022-07-25T01:21:27.461Z,7.95
2022-07-25T01:21:49.278Z,7.65
2022-07-25T01:22:11.293Z,8.00
2022-07-25T01:22:33.093Z,8.20
2022-07-25T01:22:55.641Z,7.72
2022-07-25T01:23:17.563Z,7.43
2022-07-25T01:23:39.414Z,7.65
2022-07-25T01:24:01.195Z,8.95
2022-07-25T01:24:23.072Z,8.77
2022-07-25T01:24:44.852Z,8.95
2022-07-25T01:25:06.840Z,8.43
2022-07-25T01:25:29.441Z,7.43
2022-07-25T01:25:51.196Z,7.68
2022-07-25T01:26:12.966Z,7.43
2022-07-25T01:26:34.834Z,9.55
2022-07-25T01:26:59.634Z,9.13
2022-07-25T01:27:21.396Z,8.00
2022-07-25T01:27:44.212Z,7.88
2022-07-25T01:28:06.426Z,8.18
2022-07-25T01:28:28.487Z,7.63
2022-07-25T01:28:50.315Z,7.50
2022-07-25T01:29:12.116Z,7.20
2022-07-25T01:29:33.999Z,7.88
2022-07-25T01:29:57.995Z,8.00
2022-07-25T01:30:20.927Z,7.47
2022-07-25T01:30:42.769Z,7.97
2022-07-25T01:31:04.838Z,7.88
2022-07-25T01:31:26.805Z,7.93
2022-07-25T01:31:48.876Z,7.72
2022-07-25T01:32:12.345Z,8.15
2022-07-25T01:32:34.818Z,7.80
2022-07-25T01:32:57.959Z,7.82
2022-07-25T01:33:21.833Z,8.60
2022-07-25T01:33:43.597Z,8.85
2022-07-25T01:34:05.638Z,8.73
2022-07-25T01:34:27.573Z,7.65
2022-07-25T01:34:49.333Z,10.23
2022-07-25T01:35:12.710Z,9.73
2022-07-25T01:35:34.647Z,8.93
2022-07-25T01:35:56.418Z,7.93
2022-07-25T01:36:18.218Z,7.50
2022-07-25T01:36:40.072Z,7.35
2022-07-25T01:37:02.043Z,7.47
2022-07-25T01:37:23.968Z,7.40
2022-07-25T01:37:46.385Z,7.90
2022-07-25T01:38:08.223Z,8.23
2022-07-25T01:38:30.048Z,7.65
2022-07-25T01:38:51.802Z,8.95
2022-07-25T01:39:16.087Z,7.00
2022-07-25T01:39:38.287Z,7.88
2022-07-25T01:40:00.295Z,7.97
2022-07-25T01:40:22.333Z,7.13
2022-07-25T01:40:44.817Z,8.38
2022-07-25T01:41:09.915Z,7.47
2022-07-25T01:41:31.700Z,9.15
2022-07-25T01:41:53.500Z,8.85
2022-07-25T01:42:15.692Z,7.45
2022-07-25T01:42:37.626Z,7.78
2022-07-25T01:42:59.386Z,9.02
2022-07-25T01:43:21.226Z,8.77
2022-07-25T01:43:43.020Z,10.38
2022-07-25T01:44:05.397Z,9.93
2022-07-25T01:44:27.495Z,7.80
2022-07-25T01:44:49.450Z,7.97
2022-07-25T01:45:12.743Z,7.13
2022-07-25T01:45:34.813Z,7.60
2022-07-25T01:45:57.869Z,8.32
2022-07-25T01:46:19.656Z,9.02
2022-07-25T01:46:41.564Z,7.53
2022-07-25T01:47:03.593Z,8.50
2022-07-25T01:47:25.470Z,7.80
2022-07-25T01:47:47.270Z,7.78
2022-07-25T01:48:09.131Z,8.20
2022-07-25T01:48:31.042Z,8.00
2022-07-25T01:48:53.194Z,7.15
2022-07-25T01:49:16.639Z,7.85
2022-07-25T01:49:40.984Z,7.85
2022-07-25T01:50:03.128Z,7.43
2022-07-25T01:50:26.359Z,8.30
2022-07-25T01:50:50.069Z,7.40
2022-07-25T01:51:12.121Z,8.00
2022-07-25T01:51:34.321Z,7.65
2022-07-25T01:51:56.089Z,7.88
2022-07-25T01:52:18.250Z,9.10
2022-07-25T01:52:40.476Z,7.43
2022-07-25T01:53:02.323Z,7.47
2022-07-25T01:53:24.348Z,7.38
2022-07-25T01:53:48.088Z,7.63
2022-07-25T01:54:10.649Z,8.52
2022-07-25T01:54:32.488Z,8.02
2022-07-25T01:54:54.485Z,8.27
2022-07-25T01:55:17.365Z,7.50
2022-07-25T01:55:39.125Z,7.40
2022-07-25T01:56:02.760Z,7.25
2022-07-25T01:56:25.349Z,7.55
2022-07-25T01:56:48.302Z,8.52
2022-07-25T01:57:10.838Z,8.05
2022-07-25T01:57:33.379Z,7.53
2022-07-25T01:57:58.230Z,9.20
2022-07-25T01:58:20.001Z,8.38
2022-07-25T01:58:43.248Z,7.28
2022-07-25T01:59:05.147Z,8.32
2022-07-25T01:59:26.950Z,9.10
2022-07-25T01:59:48.725Z,7.50
2022-07-25T02:00:15.682Z,7.72
2022-07-25T02:00:37.730Z,8.98
2022-07-25T02:00:59.670Z,7.43
2022-07-25T02:01:22.121Z,8.27
2022-07-25T02:01:45.026Z,9.95
2022-07-25T02:02:08.113Z,8.13
2022-07-25T02:02:30.019Z,7.65
2022-07-25T02:03:11.841Z,7.60
2022-07-25T02:03:33.655Z,7.22
2022-07-25T02:03:55.431Z,7.45
2022-07-25T02:04:17.366Z,8.57
2022-07-25T02:04:39.225Z,8.77
2022-07-25T02:05:01.157Z,7.60
2022-07-25T02:05:24.442Z,8.90
2022-07-25T02:05:46.912Z,9.20
2022-07-25T02:06:08.962Z,7.10
2022-07-25T02:06:30.758Z,7.63
2022-07-25T02:06:52.602Z,7.43
2022-07-25T02:07:14.893Z,8.65
2022-07-25T02:07:37.513Z,7.82
2022-07-25T02:07:59.255Z,7.72
2022-07-25T02:08:23.477Z,7.38
2022-07-25T02:08:45.256Z,8.00
2022-07-25T02:09:07.599Z,8.02
2022-07-25T02:09:31.363Z,7.65
2022-07-25T02:09:56.736Z,7.28
2022-07-25T02:10:18.948Z,7.47
2022-07-25T02:10:41.172Z,7.75
2022-07-25T02:11:03.202Z,7.95
2022-07-25T02:11:25.004Z,8.35
2022-07-25T02:11:46.768Z,7.63
2022-07-25T02:12:08.995Z,7.60
2022-07-25T02:12:30.918Z,7.93
2022-07-25T02:12:52.658Z,10.20
2022-07-25T02:13:18.579Z,7.75
2022-07-25T02:13:40.382Z,6.97
2022-07-25T02:14:02.379Z,6.55
2022-07-25T02:14:24.722Z,7.55
2022-07-25T02:14:46.472Z,8.35
2022-07-25T02:15:08.680Z,7.10
2022-07-25T02:15:30.562Z,7.32
2022-07-25T02:15:52.678Z,7.68
2022-07-25T02:16:14.495Z,8.48
2022-07-25T02:16:36.476Z,7.30
2022-07-25T02:16:58.315Z,7.43
2022-07-25T02:17:20.284Z,7.25
2022-07-25T02:17:42.072Z,7.40
2022-07-25T02:18:03.963Z,7.60
2022-07-25T02:18:25.903Z,7.80
2022-07-25T02:18:47.896Z,7.50
2022-07-25T02:19:13.493Z,7.20
2022-07-25T02:19:36.147Z,7.78
2022-07-25T02:19:58.478Z,8.07
2022-07-25T02:20:21.159Z,7.75
2022-07-25T02:20:43.021Z,8.30
2022-07-25T02:21:14.461Z,7.30
2022-07-25T02:21:37.591Z,7.03
2022-07-25T02:21:59.347Z,7.15
2022-07-25T02:22:21.081Z,7.07
2022-07-25T02:22:42.818Z,8.07
2022-07-25T02:23:05.917Z,7.85
2022-07-25T02:23:27.648Z,8.15
2022-07-25T02:23:49.653Z,6.63
2022-07-25T02:24:11.719Z,7.47
2022-07-25T02:24:33.833Z,7.05
2022-07-25T02:24:55.609Z,7.32
2022-07-25T02:25:17.424Z,7.88
2022-07-25T02:25:39.469Z,7.60
2022-07-25T02:26:01.268Z,8.30
2022-07-25T02:26:23.073Z,8.25
2022-07-25T02:26:44.890Z,9.05
2022-07-25T02:27:06.855Z,8.57
2022-07-25T02:27:28.633Z,8.07
2022-07-25T02:27:50.726Z,6.93
2022-07-25T02:28:12.488Z,8.65
2022-07-25T02:28:34.242Z,7.85
2022-07-25T02:28:56.020Z,8.73
2022-07-25T02:29:18.392Z,7.63
2022-07-25T02:29:43.696Z,7.28
2022-07-25T02:30:06.765Z,7.75
2022-07-25T02:30:28.736Z,8.20
2022-07-25T02:30:50.816Z,8.25
2022-07-25T02:31:12.884Z,7.70
2022-07-25T02:31:34.737Z,7.97
2022-07-25T02:31:56.630Z,7.90
2022-07-25T02:32:19.044Z,7.50
2022-07-25T02:32:40.824Z,7.53
2022-07-25T02:33:02.579Z,8.77
2022-07-25T02:33:24.380Z,9.25
2022-07-25T02:33:46.444Z,9.13
2022-07-25T02:34:08.600Z,8.93
2022-07-25T02:34:30.705Z,8.13
2022-07-25T02:34:52.947Z,7.03
2022-07-25T02:35:14.758Z,7.60
2022-07-25T02:35:36.544Z,7.88
2022-07-25T02:35:58.577Z,8.45
2022-07-25T02:36:20.370Z,7.97
2022-07-25T02:36:42.155Z,7.88
2022-07-25T02:37:04.023Z,8.00
2022-07-25T02:37:26.196Z,8.05
2022-07-25T02:37:48.235Z,9.50
2022-07-25T02:38:10.256Z,8.07
2022-07-25T02:38:32.096Z,8.55
2022-07-25T02:38:54.127Z,7.88
2022-07-25T02:39:15.991Z,7.88
2022-07-25T02:39:38.042Z,7.90
2022-07-25T02:39:59.888Z,7.57
2022-07-25T02:40:21.671Z,7.85
2022-07-25T02:40:43.495Z,7.68
2022-07-25T02:41:06.561Z,8.43
2022-07-25T02:41:28.412Z,9.27
2022-07-25T02:41:50.314Z,7.90
2022-07-25T02:42:12.084Z,8.07
2022-07-25T02:42:33.896Z,7.95
2022-07-25T02:42:55.680Z,8.18
2022-07-25T02:43:18.462Z,7.55
2022-07-25T02:43:40.247Z,7.53
2022-07-25T02:44:02.077Z,7.82
2022-07-25T02:44:23.969Z,8.05
2022-07-25T02:44:46.043Z,8.48
2022-07-25T02:45:08.395Z,8.38
2022-07-25T02:45:30.167Z,8.35
2022-07-25T02:45:52.043Z,8.95
2022-07-25T02:46:14.080Z,8.70
2022-07-25T02:46:36.248Z,8.23
2022-07-25T02:46:58.041Z,7.65
2022-07-25T02:47:19.829Z,9.32
2022-07-25T02:47:41.792Z,9.25
2022-07-25T02:48:04.830Z,8.75
2022-07-25T02:48:26.818Z,8.13
2022-07-25T02:48:48.785Z,7.88
2022-07-25T02:49:12.061Z,8.07
2022-07-25T02:49:34.058Z,8.73
2022-07-25T02:49:55.836Z,10.68
2022-07-25T02:50:19.781Z,7.70
2022-07-25T02:50:41.558Z,7.70
2022-07-25T02:51:03.473Z,8.02
2022-07-25T02:51:25.964Z,8.30
2022-07-25T02:51:47.742Z,8.50
2022-07-25T02:52:09.526Z,8.45
2022-07-25T02:52:31.378Z,8.52
2022-07-25T02:52:53.136Z,8.07
2022-07-25T02:53:14.948Z,7.80
2022-07-25T02:53:56.048Z,8.57
2022-07-25T02:54:20.080Z,9.00
2022-07-25T02:54:41.917Z,8.63
2022-07-25T02:55:09.256Z,8.02
2022-07-25T02:55:32.117Z,8.68
2022-07-25T02:55:54.853Z,8.07
2022-07-25T02:56:18.563Z,9.57
2022-07-25T02:56:43.081Z,9.80
2022-07-25T02:57:04.886Z,7.70
2022-07-25T02:57:29.296Z,7.85
2022-07-25T02:57:51.197Z,8.10
2022-07-25T02:58:13.053Z,8.50
2022-07-25T02:58:34.846Z,9.27
2022-07-25T02:58:56.615Z,9.75
2022-07-25T02:59:18.562Z,9.13
2022-07-25T02:59:40.357Z,9.10
2022-07-25T03:00:02.448Z,9.38
2022-07-25T03:00:24.864Z,8.45
2022-07-25T03:00:46.783Z,8.63
2022-07-25T03:01:08.925Z,8.52
2022-07-25T03:01:30.958Z,7.95
2022-07-25T03:01:52.803Z,8.57
2022-07-25T03:02:16.801Z,8.02
2022-07-25T03:02:38.608Z,7.95
2022-07-25T03:03:00.372Z,8.32
2022-07-25T03:03:22.159Z,9.00
2022-07-25T03:03:45.377Z,7.90
2022-07-25T03:04:07.674Z,8.30
2022-07-25T03:04:31.117Z,10.18
2022-07-25T03:04:52.993Z,10.90
2022-07-25T03:05:16.454Z,8.27
2022-07-25T03:05:38.290Z,9.27
2022-07-25T03:06:00.133Z,10.60
2022-07-25T03:06:22.193Z,8.50
2022-07-25T03:06:44.029Z,7.93
2022-07-25T03:07:05.827Z,8.00
2022-07-25T03:07:27.563Z,8.10
2022-07-25T03:07:49.485Z,8.60
2022-07-25T03:08:11.308Z,9.20
2022-07-25T03:08:33.151Z,9.50
2022-07-25T03:08:56.094Z,9.73
2022-07-25T03:09:17.829Z,8.50
2022-07-25T03:09:39.626Z,7.78
2022-07-25T03:10:01.574Z,8.23
2022-07-25T03:10:23.595Z,8.10
2022-07-25T03:10:45.480Z,7.93
2022-07-25T03:11:07.459Z,8.90
2022-07-25T03:11:29.376Z,8.25
2022-07-25T03:11:52.069Z,8.68
2022-07-25T03:12:13.918Z,8.25
2022-07-25T03:12:36.591Z,8.60
2022-07-25T03:12:59.748Z,8.77
2022-07-25T03:13:21.812Z,9.07
2022-07-25T03:13:44.166Z,9.70
2022-07-25T03:14:08.709Z,10.15
2022-07-25T03:14:30.836Z,9.43
2022-07-25T03:14:52.597Z,10.05
2022-07-25T03:15:15.059Z,8.30
2022-07-25T03:15:37.192Z,9.30
2022-07-25T03:15:58.991Z,8.68
2022-07-25T03:16:21.072Z,9.60
2022-07-25T03:16:42.947Z,10.13
2022-07-25T03:17:05.041Z,7.78
2022-07-25T03:17:26.850Z,8.15
2022-07-25T03:17:48.739Z,9.80
2022-07-25T03:18:10.543Z,8.85
2022-07-25T03:18:35.799Z,8.02
2022-07-25T03:18:57.530Z,10.80
2022-07-25T03:19:19.282Z,10.02
2022-07-25T03:19:41.076Z,10.98
2022-07-25T03:20:03.089Z,9.30
2022-07-25T03:20:24.984Z,8.73
2022-07-25T03:20:46.787Z,10.23
2022-07-25T03:21:08.626Z,10.20
2022-07-25T03:21:30.421Z,9.73
2022-07-25T03:21:52.299Z,8.95
2022-07-25T03:22:14.031Z,9.40
2022-07-25T03:22:36.024Z,9.00
2022-07-25T03:22:57.757Z,8.45
2022-07-25T03:23:19.648Z,9.35
2022-07-25T03:23:41.444Z,10.95
2022-07-25T03:24:03.461Z,9.48
2022-07-25T03:24:25.371Z,9.23
2022-07-25T03:24:47.261Z,9.25
2022-07-25T03:25:15.589Z,10.18
2022-07-25T03:25:43.639Z,9.18
2022-07-25T03:26:05.860Z,9.38
2022-07-25T03:26:27.616Z,10.45
2022-07-25T03:26:49.587Z,10.40
2022-07-25T03:27:11.378Z,9.15
2022-07-25T03:27:33.173Z,9.18
2022-07-25T03:27:54.956Z,9.90
2022-07-25T03:28:16.744Z,10.50
2022-07-25T03:28:38.663Z,9.60
2022-07-25T03:29:01.881Z,9.70
2022-07-25T03:29:23.795Z,10.05
2022-07-25T03:29:45.955Z,9.88
2022-07-25T03:30:08.550Z,9.98
2022-07-25T03:30:30.398Z,9.35
2022-07-25T03:30:52.866Z,9.60
2022-07-25T03:31:14.687Z,9.75
2022-07-25T03:31:36.576Z,9.00
2022-07-25T03:31:59.437Z,9.93
2022-07-25T03:32:21.525Z,9.43
2022-07-25T03:32:43.293Z,9.63
2022-07-25T03:33:05.405Z,9.80
2022-07-25T03:33:27.212Z,10.93
2022-07-25T03:33:48.970Z,10.30
2022-07-25T03:34:10.919Z,9.77
2022-07-25T03:34:34.406Z,9.32
2022-07-25T03:34:56.467Z,9.48
2022-07-25T03:35:18.257Z,9.88
2022-07-25T03:35:40.188Z,9.63
2022-07-25T03:36:02.008Z,10.05
2022-07-25T03:36:23.892Z,12.35
2022-07-25T03:36:45.659Z,10.82
2022-07-25T03:37:07.854Z,10.02
2022-07-25T03:37:30.004Z,10.05
2022-07-25T03:37:52.123Z,9.48
2022-07-25T03:38:14.317Z,9.27
2022-07-25T03:38:36.361Z,9.63
2022-07-25T03:38:59.551Z,9.35
2022-07-25T03:39:21.842Z,9.45
2022-07-25T03:39:44.688Z,9.70
2022-07-25T03:40:09.153Z,9.65
2022-07-25T03:40:31.683Z,9.50
2022-07-25T03:40:53.508Z,9.40
2022-07-25T03:41:15.332Z,8.93
2022-07-25T03:41:37.413Z,8.70
2022-07-25T03:41:59.360Z,8.63
2022-07-25T03:42:26.357Z,8.52
2022-07-25T03:42:48.458Z,8.20
2022-07-25T03:43:10.533Z,8.52
2022-07-25T03:43:32.524Z,8.10
2022-07-25T03:43:54.380Z,9.40
2022-07-25T03:44:19.441Z,9.07
2022-07-25T03:44:41.452Z,9.98
2022-07-25T03:45:03.638Z,10.48
2022-07-25T03:45:25.621Z,10.13
2022-07-25T03:45:47.450Z,8.65
2022-07-25T03:46:09.428Z,8.43
2022-07-25T03:46:31.825Z,8.10
2022-07-25T03:46:53.664Z,8.65
2022-07-25T03:47:20.552Z,8.88
2022-07-25T03:47:42.734Z,9.32
2022-07-25T03:48:04.589Z,8.77
2022-07-25T03:48:26.780Z,8.50
2022-07-25T03:48:48.635Z,10.00
2022-07-25T03:49:11.671Z,10.52
2022-07-25T03:49:33.757Z,8.50
2022-07-25T03:49:55.617Z,7.90
2022-07-25T03:50:17.665Z,7.95
2022-07-25T03:50:39.407Z,8.48
2022-07-25T03:51:06.423Z,8.30
2022-07-25T03:51:28.806Z,8.73
2022-07-25T03:51:50.585Z,7.30
2022-07-25T03:52:12.438Z,7.72
2022-07-25T03:52:34.313Z,6.57
2022-07-25T03:52:56.210Z,6.20
2022-07-25T03:53:17.963Z,6.75
2022-07-25T03:53:58.640Z,6.95
2022-07-25T03:54:20.384Z,6.53
2022-07-25T03:54:42.127Z,6.90
2022-07-25T03:55:06.007Z,7.13
2022-07-25T03:55:27.912Z,6.25
2022-07-25T03:55:49.689Z,6.45
2022-07-25T03:56:11.458Z,6.60
2022-07-25T03:56:41.534Z,5.72
2022-07-25T03:57:05.821Z,5.93
2022-07-25T03:57:27.674Z,5.65
2022-07-25T03:57:49.523Z,5.88
2022-07-25T03:58:11.285Z,6.03
2022-07-25T03:58:33.013Z,7.63
2022-07-25T03:58:55.246Z,7.32
2022-07-25T03:59:19.094Z,5.20
2022-07-25T03:59:41.003Z,5.85
2022-07-25T04:00:03.662Z,7.03
2022-07-25T04:00:25.443Z,8.18
2022-07-25T04:00:48.731Z,7.00
2022-07-25T04:01:11.472Z,5.63
2022-07-25T04:01:34.271Z,4.78
2022-07-25T04:01:56.127Z,6.13
2022-07-25T04:02:18.105Z,4.75
2022-07-25T04:02:40.119Z,4.32
2022-07-25T04:03:02.231Z,6.20
2022-07-25T04:03:23.970Z,7.70
2022-07-25T04:03:45.815Z,5.22
2022-07-25T04:04:08.410Z,6.43
2022-07-25T04:04:30.558Z,5.97
2022-07-25T04:04:52.466Z,6.50
2022-07-25T04:05:14.248Z,6.85
2022-07-25T04:05:36.053Z,6.07
2022-07-25T04:05:57.806Z,6.05
2022-07-25T04:06:19.779Z,5.63
2022-07-25T04:06:41.818Z,6.38
2022-07-25T04:07:03.600Z,6.45
2022-07-25T04:07:25.385Z,4.78
2022-07-25T04:07:47.192Z,5.30
2022-07-25T04:08:09.044Z,5.63
2022-07-25T04:08:30.843Z,4.55
2022-07-25T04:08:53.690Z,5.10
2022-07-25T04:09:18.162Z,4.72
2022-07-25T04:09:40.009Z,7.10
2022-07-25T04:10:02.512Z,6.68
2022-07-25T04:10:24.421Z,5.05
2022-07-25T04:10:46.574Z,4.13
2022-07-25T04:11:08.391Z,5.82
2022-07-25T04:11:30.971Z,5.20
2022-07-25T04:11:52.756Z,5.18
2022-07-25T04:12:14.772Z,5.05
2022-07-25T04:12:36.671Z,4.60
2022-07-25T04:12:58.484Z,4.97
2022-07-25T04:13:20.315Z,6.72
2022-07-25T04:13:42.383Z,5.55
2022-07-25T04:14:04.995Z,5.22
2022-07-25T04:14:26.986Z,4.82
2022-07-25T04:14:48.799Z,4.80
2022-07-25T04:15:10.737Z,4.95
2022-07-25T04:15:32.552Z,5.47
2022-07-25T04:15:56.364Z,4.50
2022-07-25T04:16:22.181Z,4.50
2022-07-25T04:16:44.637Z,5.28
2022-07-25T04:17:06.695Z,4.28
2022-07-25T04:17:29.081Z,3.97
2022-07-25T04:17:50.837Z,5.80
2022-07-25T04:18:18.604Z,4.50
2022-07-25T04:18:44.294Z,4.55
2022-07-25T04:19:07.338Z,4.05
2022-07-25T04:19:30.438Z,4.40
2022-07-25T04:19:52.397Z,3.80
2022-07-25T04:20:14.413Z,3.85
2022-07-25T04:20:37.493Z,4.20
2022-07-25T04:20:59.246Z,3.33
2022-07-25T04:21:21.683Z,3.75
2022-07-25T04:21:43.494Z,4.40
2022-07-25T04:22:05.411Z,5.40
2022-07-25T04:22:27.168Z,3.90
2022-07-25T04:22:48.930Z,3.72
2022-07-25T04:23:11.144Z,3.55
2022-07-25T04:23:33.300Z,4.03
2022-07-25T04:23:55.120Z,4.05
2022-07-25T04:24:16.943Z,4.20
2022-07-25T04:24:38.715Z,4.20
2022-07-25T04:25:00.447Z,3.53
2022-07-25T04:25:22.317Z,4.18
2022-07-25T04:25:44.108Z,4.07
2022-07-25T04:26:06.196Z,4.13
2022-07-25T04:26:28.223Z,4.72
2022-07-25T04:26:50.003Z,3.90
2022-07-25T04:27:11.919Z,4.00
2022-07-25T04:27:33.728Z,3.60
2022-07-25T04:28:03.227Z,3.60
2022-07-25T04:28:25.530Z,4.32
2022-07-25T04:28:47.392Z,4.05
2022-07-25T04:29:09.138Z,4.10
2022-07-25T04:29:31.313Z,3.90
2022-07-25T04:29:53.143Z,4.88
2022-07-25T04:30:24.326Z,4.65
2022-07-25T04:30:46.898Z,3.83
2022-07-25T04:31:08.706Z,3.97
2022-07-25T04:31:30.588Z,4.07
2022-07-25T04:31:52.552Z,3.83
2022-07-25T04:32:14.790Z,3.15
2022-07-25T04:32:36.855Z,5.13
2022-07-25T04:32:58.874Z,4.57
2022-07-25T04:33:21.703Z,4.35
2022-07-25T04:33:43.834Z,3.65
2022-07-25T04:34:05.981Z,4.53
2022-07-25T04:34:28.310Z,3.90
2022-07-25T04:34:51.618Z,3.50
2022-07-25T04:35:13.429Z,5.85
2022-07-25T04:35:35.446Z,4.47
2022-07-25T04:35:57.415Z,4.68
2022-07-25T04:36:19.167Z,4.63
2022-07-25T04:36:40.990Z,3.65
2022-07-25T04:37:02.957Z,3.70
2022-07-25T04:37:24.780Z,4.65
2022-07-25T04:37:46.615Z,4.95
2022-07-25T04:38:12.058Z,4.05
2022-07-25T04:38:34.341Z,3.55
2022-07-25T04:38:56.225Z,3.28
2022-07-25T04:39:17.974Z,4.28
2022-07-25T04:39:39.753Z,3.88
2022-07-25T04:40:01.499Z,2.90
2022-07-25T04:40:23.473Z,3.08
2022-07-25T04:40:45.809Z,4.35
2022-07-25T04:41:07.607Z,4.20
2022-07-25T04:41:29.613Z,3.72
2022-07-25T04:41:51.565Z,3.50
2022-07-25T04:42:13.365Z,3.60
2022-07-25T04:42:35.248Z,3.70
2022-07-25T04:42:57.527Z,4.03
2022-07-25T04:43:21.171Z,2.78
2022-07-25T04:43:48.308Z,3.13
2022-07-25T04:44:10.584Z,3.10
2022-07-25T04:44:32.389Z,2.80
2022-07-25T04:44:54.265Z,3.80
2022-07-25T04:45:17.824Z,3.20
2022-07-25T04:45:40.084Z,3.40
2022-07-25T04:46:02.411Z,4.43
2022-07-25T04:46:27.499Z,6.13
2022-07-25T04:46:49.274Z,4.00
2022-07-25T04:47:11.229Z,3.60
2022-07-25T04:47:33.070Z,5.10
2022-07-25T04:47:56.569Z,5.50
2022-07-25T04:48:19.578Z,3.17
2022-07-25T04:48:41.424Z,3.05
2022-07-25T04:49:08.118Z,3.10
2022-07-25T04:49:29.934Z,4.55
2022-07-25T04:49:51.806Z,3.97
2022-07-25T04:50:14.286Z,3.65
2022-07-25T04:50:36.362Z,2.93
2022-07-25T04:50:59.172Z,3.10
2022-07-25T04:51:20.964Z,3.42
2022-07-25T04:51:42.907Z,3.65
2022-07-25T04:52:04.900Z,3.10
2022-07-25T04:52:26.923Z,3.78
2022-07-25T04:52:48.929Z,3.33
2022-07-25T04:53:10.870Z,3.45
2022-07-25T04:53:32.842Z,4.03
2022-07-25T04:53:54.612Z,3.83
2022-07-25T04:54:16.431Z,3.53
2022-07-25T04:54:38.213Z,4.00
2022-07-25T04:54:59.955Z,3.92
2022-07-25T04:55:22.318Z,3.45
2022-07-25T04:55:44.282Z,3.60
2022-07-25T04:56:06.561Z,3.33
2022-07-25T04:56:28.412Z,3.13
2022-07-25T04:56:50.447Z,3.10
2022-07-25T04:57:12.223Z,3.08
2022-07-25T04:57:34.352Z,2.83
2022-07-25T04:57:56.129Z,3.88
2022-07-25T04:58:18.171Z,3.60
2022-07-25T04:58:40.083Z,2.80